createdAt,value
2018-05-26T00:00:16.603Z,14.10
2018-05-26T00:02:45.689Z,13.90
2018-05-26T00:05:14.025Z,13.90
2018-05-26T00:07:42.360Z,14.00
2018-05-26T00:10:10.646Z,14.10
2018-05-26T00:12:39.010Z,14.20
2018-05-26T00:15:07.316Z,14.30
2018-05-26T00:17:35.718Z,14.10
2018-05-26T00:20:04.033Z,14.00
2018-05-26T00:22:33.085Z,14.00
2018-05-26T00:25:01.410Z,13.90
2018-05-26T00:27:29.688Z,14.00
2018-05-26T00:29:57.977Z,13.90
2018-05-26T00:32:26.294Z,14.00
2018-05-26T00:34:55.345Z,13.80
2018-05-26T00:37:23.667Z,13.80
2018-05-26T00:39:51.962Z,13.80
2018-05-26T00:42:20.280Z,13.80
2018-05-26T00:44:49.324Z,14.10
2018-05-26T00:47:17.614Z,14.10
2018-05-26T00:49:45.937Z,14.00
2018-05-26T00:52:14.227Z,14.00
2018-05-26T00:54:42.504Z,14.00
2018-05-26T00:57:10.847Z,14.00
2018-05-26T00:59:39.194Z,14.10
2018-05-26T01:02:07.589Z,14.10
2018-05-26T01:04:35.930Z,14.00
2018-05-26T01:07:04.251Z,13.90
2018-05-26T01:09:32.538Z,13.90
2018-05-26T01:12:00.949Z,13.90
2018-05-26T01:14:29.228Z,13.80
2018-05-26T01:16:57.552Z,13.90
2018-05-26T01:19:26.649Z,14.00
2018-05-26T01:21:55.741Z,13.90
2018-05-26T01:24:24.237Z,13.90
2018-05-26T01:26:52.519Z,13.80
2018-05-26T01:29:20.800Z,13.80
2018-05-26T01:31:49.501Z,13.80
2018-05-26T01:34:17.784Z,13.70
2018-05-26T01:36:46.061Z,13.70
2018-05-26T01:39:14.377Z,13.80
2018-05-26T01:41:42.662Z,13.90
2018-05-26T01:44:11.161Z,13.90
2018-05-26T01:46:39.454Z,13.70
2018-05-26T01:49:07.747Z,13.50
2018-05-26T01:51:36.052Z,13.30
2018-05-26T01:54:05.107Z,13.70
2018-05-26T01:56:33.513Z,13.70
2018-05-26T01:59:01.813Z,13.70
2018-05-26T02:01:30.137Z,13.80
2018-05-26T02:03:59.319Z,13.50
2018-05-26T02:06:27.596Z,13.50
2018-05-26T02:08:55.892Z,13.50
2018-05-26T02:11:24.221Z,13.70
2018-05-26T02:13:52.546Z,13.70
2018-05-26T02:16:20.844Z,14.00
2018-05-26T02:18:49.128Z,13.80
2018-05-26T02:21:17.530Z,13.60
2018-05-26T02:23:45.809Z,13.60
2018-05-26T02:26:14.134Z,13.40
2018-05-26T02:28:42.444Z,13.30
2018-05-26T02:31:11.498Z,13.40
2018-05-26T02:33:39.794Z,13.30
2018-05-26T02:36:08.122Z,13.20
2018-05-26T02:38:37.170Z,13.20
2018-05-26T02:41:05.502Z,13.20
2018-05-26T02:43:33.786Z,13.30
2018-05-26T02:46:02.101Z,13.20
2018-05-26T02:48:31.584Z,12.90
2018-05-26T02:50:59.879Z,12.90
2018-05-26T02:53:29.673Z,12.70
2018-05-26T02:55:57.997Z,12.70
2018-05-26T02:58:26.493Z,12.70
2018-05-26T03:00:54.785Z,12.70
2018-05-26T03:03:23.169Z,12.70
2018-05-26T03:05:58.016Z,12.50
2018-05-26T03:08:31.970Z,12.40
2018-05-26T03:11:05.918Z,12.50
2018-05-26T03:13:39.833Z,12.50
2018-05-26T03:16:13.760Z,12.50
2018-05-26T03:18:42.049Z,12.50
2018-05-26T03:21:10.338Z,12.70
2018-05-26T03:23:38.655Z,12.90
2018-05-26T03:26:06.950Z,13.10
2018-05-26T03:28:35.268Z,13.30
2018-05-26T03:31:04.325Z,13.60
2018-05-26T03:33:32.653Z,13.60
2018-05-26T03:36:00.982Z,13.70
2018-05-26T03:38:29.264Z,13.80
2018-05-26T03:40:57.913Z,13.70
2018-05-26T03:43:26.201Z,13.80
2018-05-26T03:45:54.485Z,14.90
2018-05-26T03:48:22.813Z,15.90
2018-05-26T03:50:51.901Z,17.00
2018-05-26T03:53:20.184Z,17.00
2018-05-26T03:56:00.462Z,16.60
2018-05-26T03:58:40.601Z,15.80
2018-05-26T04:01:09.017Z,15.20
2018-05-26T04:03:37.406Z,14.80
2018-05-26T04:06:05.772Z,14.60
2018-05-26T04:08:34.029Z,14.40
2018-05-26T04:11:02.381Z,14.30
2018-05-26T04:13:31.077Z,14.20
2018-05-26T04:15:59.352Z,14.20
2018-05-26T04:18:27.646Z,14.20
2018-05-26T04:20:55.961Z,14.40
2018-05-26T04:23:25.044Z,14.60
2018-05-26T04:25:53.360Z,14.60
2018-05-26T04:28:22.761Z,14.90
2018-05-26T04:30:52.615Z,14.90
2018-05-26T04:33:21.661Z,15.00
2018-05-26T04:35:49.992Z,15.00
2018-05-26T04:38:18.273Z,14.90
2018-05-26T04:40:46.594Z,14.90
2018-05-26T04:43:14.874Z,15.00
2018-05-26T04:45:44.363Z,15.40
2018-05-26T04:48:12.656Z,15.40
2018-05-26T04:50:40.955Z,15.60
2018-05-26T04:53:09.281Z,15.90
2018-05-26T04:55:37.577Z,16.30
2018-05-26T04:58:05.893Z,16.70
2018-05-26T05:00:34.486Z,16.60
2018-05-26T05:03:02.798Z,17.00
2018-05-26T05:05:31.072Z,17.20
2018-05-26T05:07:59.534Z,17.10
2018-05-26T05:10:27.822Z,17.20
2018-05-26T05:12:56.110Z,17.50
2018-05-26T05:15:24.423Z,17.50
2018-05-26T05:17:52.828Z,17.30
2018-05-26T05:20:21.119Z,17.20
2018-05-26T05:22:49.823Z,17.20
2018-05-26T05:25:18.099Z,17.20
2018-05-26T05:27:46.401Z,17.40
2018-05-26T05:30:14.722Z,17.50
2018-05-26T05:32:43.765Z,17.60
2018-05-26T05:35:12.181Z,17.60
2018-05-26T05:37:40.472Z,17.80
2018-05-26T05:40:08.853Z,18.20
2018-05-26T05:42:37.162Z,18.00
2018-05-26T05:45:05.487Z,18.00
2018-05-26T05:47:33.774Z,18.10
2018-05-26T05:50:02.129Z,18.00
2018-05-26T05:52:31.957Z,18.00
2018-05-26T05:55:00.269Z,18.00
2018-05-26T05:57:29.357Z,17.90
2018-05-26T05:59:57.632Z,17.90
2018-05-26T06:02:26.334Z,18.30
2018-05-26T06:04:54.625Z,18.40
2018-05-26T06:07:23.017Z,18.60
2018-05-26T06:09:51.504Z,19.10
2018-05-26T06:12:19.823Z,19.50
2018-05-26T06:14:48.905Z,20.00
2018-05-26T06:17:18.326Z,20.40
2018-05-26T06:19:48.145Z,20.00
2018-05-26T06:22:16.445Z,20.00
2018-05-26T06:24:44.761Z,19.90
2018-05-26T06:27:13.819Z,20.20
2018-05-26T06:29:42.135Z,20.20
2018-05-26T06:32:10.517Z,20.20
2018-05-26T06:34:38.814Z,20.50
2018-05-26T06:37:08.596Z,20.30
2018-05-26T06:39:37.086Z,20.30
2018-05-26T06:42:05.415Z,20.40
2018-05-26T06:44:33.697Z,20.10
2018-05-26T06:47:02.018Z,19.90
2018-05-26T06:49:31.117Z,20.40
2018-05-26T06:52:00.313Z,20.70
2018-05-26T06:54:28.796Z,20.70
2018-05-26T06:56:57.090Z,20.90
2018-05-26T06:59:25.381Z,21.10
2018-05-26T07:01:53.700Z,21.10
2018-05-26T07:04:22.881Z,21.20
2018-05-26T07:06:52.669Z,21.20
2018-05-26T07:09:20.996Z,21.20
2018-05-26T07:11:49.277Z,21.60
2018-05-26T07:14:17.603Z,21.40
2018-05-26T07:16:46.777Z,20.90
2018-05-26T07:19:15.073Z,20.80
2018-05-26T07:21:43.460Z,21.10
2018-05-26T07:24:11.787Z,21.30
2018-05-26T07:26:40.841Z,21.70
2018-05-26T07:29:09.124Z,21.70
2018-05-26T07:31:37.450Z,21.80
2018-05-26T07:34:05.736Z,21.90
2018-05-26T07:36:34.029Z,21.40
2018-05-26T07:39:02.410Z,21.20
2018-05-26T07:41:32.200Z,21.70
2018-05-26T07:44:00.509Z,21.60
2018-05-26T07:46:28.905Z,22.00
2018-05-26T07:48:57.229Z,22.00
2018-05-26T07:51:25.540Z,22.20
2018-05-26T07:53:53.851Z,22.30
2018-05-26T07:56:22.199Z,22.70
2018-05-26T07:58:51.391Z,22.70
2018-05-26T08:01:19.673Z,22.60
2018-05-26T08:03:47.962Z,22.80
2018-05-26T08:06:16.659Z,22.70
2018-05-26T08:08:45.044Z,22.30
2018-05-26T08:11:13.330Z,22.60
2018-05-26T08:13:41.704Z,22.70
2018-05-26T08:16:09.977Z,22.90
2018-05-26T08:18:38.310Z,22.50
2018-05-26T08:21:06.590Z,22.60
2018-05-26T08:23:34.868Z,22.90
2018-05-26T08:26:03.189Z,23.10
2018-05-26T08:28:31.509Z,23.40
2018-05-26T08:30:59.861Z,23.50
2018-05-26T08:33:28.176Z,23.30
2018-05-26T08:35:57.241Z,23.60
2018-05-26T08:38:25.959Z,23.60
2018-05-26T08:40:54.399Z,23.70
2018-05-26T08:43:22.749Z,23.90
2018-05-26T08:45:51.853Z,24.60
2018-05-26T08:48:20.346Z,24.60
2018-05-26T08:50:48.634Z,24.40
2018-05-26T08:53:16.957Z,24.30
2018-05-26T08:55:46.014Z,23.60
2018-05-26T08:58:14.317Z,23.60
2018-05-26T09:00:42.645Z,23.70
2018-05-26T09:03:10.996Z,24.20
2018-05-26T09:05:39.383Z,24.40
2018-05-26T09:08:07.657Z,24.30
2018-05-26T09:10:35.936Z,24.30
2018-05-26T09:13:04.261Z,24.50
2018-05-26T09:15:32.581Z,24.60
2018-05-26T09:18:01.638Z,24.60
2018-05-26T09:20:29.965Z,24.60
2018-05-26T09:22:59.053Z,24.50
2018-05-26T09:25:28.925Z,24.80
2018-05-26T09:27:57.195Z,24.80
2018-05-26T09:30:26.681Z,25.20
2018-05-26T09:32:54.973Z,25.20
2018-05-26T09:35:23.252Z,25.10
2018-05-26T09:37:51.577Z,25.20
2018-05-26T09:40:20.666Z,25.60
2018-05-26T09:42:48.965Z,25.50
2018-05-26T09:45:17.249Z,25.40
2018-05-26T09:47:45.730Z,24.70
2018-05-26T09:50:14.017Z,24.80
2018-05-26T09:52:42.313Z,25.30
2018-05-26T09:55:10.696Z,25.70
2018-05-26T09:57:39.041Z,26.00
2018-05-26T10:00:07.377Z,26.30
2018-05-26T10:02:37.225Z,25.40
2018-05-26T10:07:48.562Z,25.00
2018-05-26T10:10:17.653Z,24.90
2018-05-26T10:12:45.938Z,24.80
2018-05-26T10:15:14.230Z,25.20
2018-05-26T10:17:42.929Z,25.30
2018-05-26T10:20:11.218Z,25.70
2018-05-26T10:22:39.497Z,25.70
2018-05-26T10:25:07.835Z,25.50
2018-05-26T10:27:36.117Z,25.30
2018-05-26T10:30:04.451Z,25.50
2018-05-26T10:32:32.729Z,25.90
2018-05-26T10:35:01.136Z,26.40
2018-05-26T10:37:29.423Z,26.50
2018-05-26T10:39:57.709Z,26.40
2018-05-26T10:42:26.103Z,26.50
2018-05-26T10:44:54.392Z,26.30
2018-05-26T10:47:22.678Z,26.00
2018-05-26T10:49:51.088Z,25.80
2018-05-26T10:52:19.385Z,25.40
2018-05-26T10:54:48.457Z,26.00
2018-05-26T10:57:17.181Z,26.00
2018-05-26T10:59:45.473Z,26.00
2018-05-26T11:02:13.855Z,25.70
2018-05-26T11:04:42.258Z,25.70
2018-05-26T11:07:10.645Z,25.80
2018-05-26T11:09:38.950Z,25.60
2018-05-26T11:12:07.281Z,26.00
2018-05-26T11:14:35.637Z,25.90
2018-05-26T11:17:03.973Z,25.90
2018-05-26T11:19:32.282Z,25.90
2018-05-26T11:22:00.563Z,26.30
2018-05-26T11:24:29.020Z,26.80
2018-05-26T11:26:58.001Z,27.30
2018-05-26T11:29:27.125Z,27.30
2018-05-26T11:31:55.487Z,27.20
2018-05-26T11:34:23.782Z,26.50
2018-05-26T11:36:52.080Z,26.50
2018-05-26T11:39:21.274Z,26.60
2018-05-26T11:41:49.557Z,26.60
2018-05-26T11:44:17.875Z,26.90
2018-05-26T11:46:47.053Z,27.00
2018-05-26T11:49:15.346Z,27.00
2018-05-26T11:51:43.669Z,26.50
2018-05-26T11:54:12.871Z,26.40
2018-05-26T11:56:41.960Z,26.20
2018-05-26T11:59:10.555Z,26.20
2018-05-26T12:01:38.864Z,26.10
2018-05-26T12:04:07.926Z,26.10
2018-05-26T12:06:36.632Z,26.10
2018-05-26T12:09:04.915Z,25.90
2018-05-26T12:11:33.192Z,25.70
2018-05-26T12:14:01.514Z,25.60
2018-05-26T12:16:29.798Z,26.00
2018-05-26T12:18:58.198Z,26.20
2018-05-26T12:21:26.530Z,26.30
2018-05-26T12:23:54.808Z,26.90
2018-05-26T12:26:23.884Z,27.60
2018-05-26T12:28:52.267Z,27.60
2018-05-26T12:31:20.556Z,28.10
2018-05-26T12:33:48.849Z,27.80
2018-05-26T12:36:17.240Z,27.80
2018-05-26T12:38:45.525Z,28.10
2018-05-26T12:41:15.352Z,28.60
2018-05-26T12:43:45.143Z,28.30
2018-05-26T12:46:13.489Z,28.30
2018-05-26T12:48:42.581Z,28.40
2018-05-26T12:51:10.965Z,28.40
2018-05-26T12:53:39.310Z,27.50
2018-05-26T12:56:07.600Z,27.00
2018-05-26T12:58:35.876Z,26.80
2018-05-26T13:01:04.204Z,27.00
2018-05-26T13:03:32.493Z,26.80
2018-05-26T13:06:00.805Z,27.20
2018-05-26T13:08:29.437Z,27.40
2018-05-26T13:10:58.510Z,26.60
2018-05-26T13:13:26.825Z,26.60
2018-05-26T13:15:55.918Z,26.30
2018-05-26T13:18:24.201Z,26.20
2018-05-26T13:20:52.491Z,26.40
2018-05-26T13:23:20.813Z,26.20
2018-05-26T13:25:49.112Z,26.50
2018-05-26T13:28:18.648Z,27.10
2018-05-26T13:30:47.124Z,27.40
2018-05-26T13:33:15.678Z,27.90
2018-05-26T13:35:44.209Z,27.70
2018-05-26T13:38:12.606Z,27.10
2018-05-26T13:40:41.777Z,26.90
2018-05-26T13:43:10.159Z,26.80
2018-05-26T13:45:38.491Z,27.30
2018-05-26T13:48:07.103Z,27.00
2018-05-26T13:50:35.420Z,26.80
2018-05-26T13:53:04.559Z,27.10
2018-05-26T13:55:32.872Z,27.00
2018-05-26T13:58:01.161Z,26.80
2018-05-26T14:00:30.329Z,26.60
2018-05-26T14:02:58.630Z,26.60
2018-05-26T14:05:26.919Z,26.70
2018-05-26T14:07:56.008Z,26.90
2018-05-26T14:10:24.299Z,26.90
2018-05-26T14:12:52.625Z,27.60
2018-05-26T14:15:21.686Z,27.40
2018-05-26T14:17:49.964Z,27.40
2018-05-26T14:20:18.303Z,26.20
2018-05-26T14:22:47.016Z,26.00
2018-05-26T14:25:15.348Z,25.40
2018-05-26T14:27:43.747Z,25.00
2018-05-26T14:30:12.330Z,24.50
2018-05-26T14:32:41.557Z,24.90
2018-05-26T14:35:10.749Z,25.30
2018-05-26T14:37:39.089Z,25.20
2018-05-26T14:40:07.377Z,25.10
2018-05-26T14:42:36.025Z,25.10
2018-05-26T14:45:04.327Z,24.80
2018-05-26T14:47:32.681Z,24.60
2018-05-26T14:50:01.130Z,24.20
2018-05-26T14:52:29.438Z,24.60
2018-05-26T14:54:57.760Z,25.30
2018-05-26T14:57:26.826Z,25.30
2018-05-26T14:59:55.227Z,25.30
2018-05-26T15:02:23.546Z,25.30
2018-05-26T15:04:52.147Z,25.30
2018-05-26T15:07:20.474Z,25.40
2018-05-26T15:09:48.749Z,26.10
2018-05-26T15:12:17.130Z,26.60
2018-05-26T15:14:45.476Z,25.20
2018-05-26T15:17:13.985Z,24.60
2018-05-26T15:19:44.004Z,23.70
2018-05-26T15:22:13.324Z,23.70
2018-05-26T15:24:41.785Z,23.40
2018-05-26T15:27:10.126Z,23.10
2018-05-26T15:29:38.413Z,23.00
2018-05-26T15:32:06.696Z,23.10
2018-05-26T15:34:35.038Z,23.20
2018-05-26T15:37:03.320Z,23.30
2018-05-26T15:39:31.665Z,23.30
2018-05-26T15:42:00.103Z,23.30
2018-05-26T15:44:29.577Z,23.30
2018-05-26T15:46:57.914Z,23.30
2018-05-26T15:49:26.210Z,23.00
2018-05-26T15:51:54.604Z,22.80
2018-05-26T15:54:22.901Z,22.80
2018-05-26T15:56:51.222Z,22.80
2018-05-26T15:59:19.913Z,22.80
2018-05-26T16:01:48.202Z,23.00
2018-05-26T16:04:16.592Z,22.90
2018-05-26T16:06:45.422Z,23.00
2018-05-26T16:09:13.822Z,23.20
2018-05-26T16:11:42.335Z,23.20
2018-05-26T16:14:11.538Z,23.30
2018-05-26T16:16:39.858Z,23.30
2018-05-26T16:19:08.178Z,23.40
2018-05-26T16:21:36.514Z,23.40
2018-05-26T16:24:05.976Z,23.40
2018-05-26T16:26:34.261Z,23.40
2018-05-26T16:29:02.574Z,24.90
2018-05-26T16:31:30.914Z,25.70
2018-05-26T16:33:59.194Z,25.20
2018-05-26T16:36:27.481Z,25.30
2018-05-26T16:38:55.810Z,26.30
2018-05-26T16:41:24.094Z,27.70
2018-05-26T16:43:52.414Z,28.20
2018-05-26T16:46:20.701Z,28.30
2018-05-26T16:48:49.325Z,27.80
2018-05-26T16:51:17.698Z,26.50
2018-05-26T16:53:45.991Z,25.50
2018-05-26T16:56:14.609Z,25.00
2018-05-26T16:58:43.068Z,24.80
2018-05-26T17:01:11.577Z,24.60
2018-05-26T17:03:40.258Z,24.20
2018-05-26T17:06:09.341Z,24.10
2018-05-26T17:08:37.620Z,24.00
2018-05-26T17:11:06.709Z,23.30
2018-05-26T17:13:34.994Z,23.30
2018-05-26T17:16:03.307Z,23.10
2018-05-26T17:18:31.678Z,23.00
2018-05-26T17:21:00.324Z,22.80
2018-05-26T17:23:28.626Z,22.60
2018-05-26T17:25:56.921Z,22.60
2018-05-26T17:28:25.242Z,22.60
2018-05-26T17:30:53.561Z,22.50
2018-05-26T17:33:21.868Z,22.40
2018-05-26T17:35:50.945Z,22.50
2018-05-26T17:38:19.277Z,22.40
2018-05-26T17:40:47.658Z,22.50
2018-05-26T17:43:16.383Z,22.60
2018-05-26T17:45:44.763Z,22.80
2018-05-26T17:48:13.205Z,23.00
2018-05-26T17:50:42.518Z,22.90
2018-05-26T17:53:10.996Z,22.90
2018-05-26T17:55:39.296Z,23.30
2018-05-26T17:58:07.617Z,24.00
2018-05-26T18:00:36.155Z,24.20
2018-05-26T18:03:04.545Z,23.80
2018-05-26T18:05:32.916Z,23.70
2018-05-26T18:08:01.365Z,23.40
2018-05-26T18:10:30.462Z,23.40
2018-05-26T18:12:58.944Z,23.40
2018-05-26T18:15:27.529Z,23.20
2018-05-26T18:17:55.922Z,23.00
2018-05-26T18:20:26.670Z,22.60
2018-05-26T18:22:54.969Z,22.50
2018-05-26T18:25:24.058Z,22.20
2018-05-26T18:27:52.344Z,22.10
2018-05-26T18:30:20.655Z,22.20
2018-05-26T18:32:49.053Z,22.10
2018-05-26T18:35:17.303Z,22.00
2018-05-26T18:37:46.436Z,21.60
2018-05-26T18:40:14.791Z,21.60
2018-05-26T18:42:43.284Z,21.60
2018-05-26T18:45:11.635Z,21.60
2018-05-26T18:47:40.020Z,21.50
2018-05-26T18:50:08.325Z,21.50
2018-05-26T18:52:37.408Z,21.40
2018-05-26T18:55:05.711Z,21.40
2018-05-26T18:57:33.993Z,21.40
2018-05-26T19:00:02.462Z,21.20
2018-05-26T19:02:31.645Z,21.20
2018-05-26T19:04:59.930Z,21.10
2018-05-26T19:07:28.245Z,21.10
2018-05-26T19:09:56.543Z,21.00
2018-05-26T19:12:24.871Z,20.80
2018-05-26T19:14:53.154Z,20.70
2018-05-26T19:17:21.438Z,20.70
2018-05-26T19:19:49.770Z,20.50
2018-05-26T19:22:18.156Z,20.40
2018-05-26T19:24:46.558Z,20.40
2018-05-26T19:27:15.303Z,20.30
2018-05-26T19:29:43.757Z,20.10
2018-05-26T19:32:12.199Z,20.10
2018-05-26T19:34:40.605Z,20.10
2018-05-26T19:37:09.009Z,20.00
2018-05-26T19:39:37.385Z,20.00
2018-05-26T19:42:05.665Z,19.90
2018-05-26T19:44:33.989Z,19.90
2018-05-26T19:47:02.449Z,19.90
2018-05-26T19:49:31.563Z,19.90
2018-05-26T19:51:59.917Z,19.90
2018-05-26T19:54:28.244Z,19.80
2018-05-26T19:56:56.574Z,19.80
2018-05-26T19:59:25.669Z,19.80
2018-05-26T20:01:53.972Z,19.70
2018-05-26T20:04:22.306Z,19.80
2018-05-26T20:06:51.364Z,19.70
2018-05-26T20:09:19.645Z,19.70
2018-05-26T20:11:48.040Z,19.60
2018-05-26T20:14:16.378Z,19.50
2018-05-26T20:16:44.994Z,19.60
2018-05-26T20:19:13.390Z,19.50
2018-05-26T20:21:41.783Z,19.50
2018-05-26T20:24:10.153Z,19.50
2018-05-26T20:26:39.222Z,19.50
2018-05-26T20:29:07.510Z,19.50
2018-05-26T20:31:35.843Z,19.50
2018-05-26T20:34:04.120Z,19.50
2018-05-26T20:36:32.609Z,19.50
2018-05-26T20:39:00.941Z,19.40
2018-05-26T20:41:29.363Z,19.50
2018-05-26T20:43:58.485Z,19.50
2018-05-26T20:46:26.817Z,19.50
2018-05-26T20:48:55.869Z,19.50
2018-05-26T20:51:24.203Z,19.50
2018-05-26T20:53:52.485Z,19.50
2018-05-26T20:56:20.768Z,19.60
2018-05-26T20:58:49.097Z,19.60
2018-05-26T21:01:18.241Z,19.50
2018-05-26T21:03:46.728Z,19.50
2018-05-26T21:06:15.158Z,19.50
2018-05-26T21:08:43.597Z,19.30
2018-05-26T21:11:12.078Z,19.30
2018-05-26T21:13:40.411Z,19.30
2018-05-26T21:16:08.765Z,19.30
2018-05-26T21:18:37.136Z,19.30
2018-05-26T21:21:05.455Z,19.30
2018-05-26T21:23:35.193Z,19.20
2018-05-26T21:26:03.510Z,19.20
2018-05-26T21:28:32.694Z,19.00
2018-05-26T21:31:01.085Z,19.00
2018-05-26T21:33:29.438Z,18.90
2018-05-26T21:35:57.758Z,18.80
2018-05-26T21:38:26.846Z,18.80
2018-05-26T21:40:55.139Z,18.80
2018-05-26T21:43:23.463Z,18.90
2018-05-26T21:45:51.756Z,19.00
2018-05-26T21:48:20.068Z,19.00
2018-05-26T21:50:48.493Z,19.00
2018-05-26T21:53:16.890Z,19.00
2018-05-26T21:55:45.458Z,19.00
2018-05-26T21:58:14.064Z,19.10
2018-05-26T22:00:42.716Z,19.20
2018-05-26T22:03:11.852Z,19.00
2018-05-26T22:05:41.060Z,18.80
2018-05-26T22:08:09.525Z,18.80
2018-05-26T22:10:38.150Z,18.90
2018-05-26T22:13:06.447Z,18.90
2018-05-26T22:15:34.814Z,18.80
2018-05-26T22:18:03.566Z,18.70
2018-05-26T22:20:31.876Z,18.60
2018-05-26T22:23:00.153Z,18.50
2018-05-26T22:25:28.482Z,18.40
2018-05-26T22:27:56.772Z,18.40
2018-05-26T22:30:25.378Z,18.30
2018-05-26T22:32:53.670Z,18.20
2018-05-26T22:35:22.221Z,18.20
2018-05-26T22:37:51.309Z,18.10
2018-05-26T22:40:19.598Z,18.20
2018-05-26T22:42:48.025Z,18.10
2018-05-26T22:45:16.663Z,18.10
2018-05-26T22:47:45.168Z,18.20
2018-05-26T22:50:13.894Z,18.30
2018-05-26T22:52:42.353Z,18.30
2018-05-26T22:55:11.544Z,18.30
2018-05-26T22:57:39.879Z,18.20
2018-05-26T23:00:08.198Z,18.30
2018-05-26T23:02:36.248Z,18.30
2018-05-26T23:05:04.571Z,18.20
2018-05-26T23:07:32.922Z,18.20
2018-05-26T23:10:02.081Z,17.90
2018-05-26T23:12:30.405Z,17.90
2018-05-26T23:14:58.749Z,17.90
2018-05-26T23:17:27.802Z,17.90
2018-05-26T23:19:56.125Z,17.80
2018-05-26T23:22:24.413Z,17.90
2018-05-26T23:24:52.705Z,17.90
2018-05-26T23:27:21.122Z,17.90
2018-05-26T23:29:49.400Z,17.90
2018-05-26T23:32:17.986Z,17.90
2018-05-26T23:34:47.062Z,17.80
2018-05-26T23:37:15.426Z,17.80
2018-05-26T23:39:44.011Z,17.80
2018-05-26T23:42:12.414Z,17.70
2018-05-26T23:44:40.758Z,17.60
2018-05-26T23:47:09.262Z,17.50
2018-05-26T23:49:37.621Z,17.60
2018-05-26T23:52:06.674Z,17.60
2018-05-26T23:54:35.309Z,17.60
2018-05-26T23:57:04.513Z,17.50
2018-05-26T23:59:32.950Z,17.50
